Skip Navigation Links
NOAA logo - Click to go to the NOAA homepage
NOAA's National Weather Service
Alaska Aviation Weather Unit
  NWS logo - Click to go to the NWS homepage
Left Navbar Graphic     02 AKDT = 10 GMT

   
NOAA is celebrating 200 years of science, service, and stewardship. Visit the NOAA 200th celebration Web site to learn more.
USA.gov is the U.S. Government's official Web portal to all Federal, state and local government Web resources and services.
Facebook
NWS on Facebook

Important Change Regarding the AAWU Web Presence

 

Over the last several months, the AAWU has been working to navigate its webpages to a nationally supported server. Security, as well as other needs, have necessitated the change.  In the process, we have made an effort to enhance the functionality of our website, as well as some of our products. As of June 27, 2017, aawu.arh.noaa.gov will be discontinued. The new AAWU web address is weather.gov/aawu. It is now live and will run in-parallel with the old site until it is discontinued. Please send any feedback or questions regarding the new webpages to nws.ar.aawu.webauthors@noaa.gov.  Thank you for your patience during this time of transition.
AAWU Home :: Display TAF Add Bookmark
TAF PASN 250945Z 2510/2606 13025G35KT 4SM -RA BR BKN005
     FM251800 13015G25KT 4SM -SHRA BR SCT003 OVC006
     FM260000 19011KT P6SM -SHRA SCT007 OVC025=
METAR PASN 250453Z AUTO 13017KT 4SM -RA BR OVC005 08/07 A2980 RMK AO2
     SLP092 P0003 T00780072 TSNO=

METAR PASN 250553Z AUTO 14018KT 5SM -RA BR OVC005 08/07 A2978 RMK
 AO2 SLP084 P0003 60011 T00780072 10083 20078 56028 TSNO=

METAR PASN 250653Z AUTO 13015KT 3SM -RA BR BKN005 OVC008 08/07 A2976 RMK
     AO2 SLP079 P0003 T00780072 TSNO=

PASN 250746Z AUTO 13015KT 4SM -RA BR OVC004 08/07 A2974=

METAR PASN 250753Z AUTO 13016KT 4SM -RA BR OVC004 08/07 A2974 RMK AO2
     SLP072 P0006 T00780072 TSNO=

PASN 250819Z AUTO 13016KT 4SM -RA BR OVC005 08/07 A2974=

METAR PASN 250853Z AUTO 13015KT 4SM RA BR OVC005 08/07 A2972 RMK AO2
     SLP066 P0007 60016 T00780072 400890072 58018 TSNO=

METAR PASN 250953Z AUTO 14016KT 4SM -RA BR OVC006 08/07 A2971 RMK AO2
     SLP061 P0006 T00780072 TSNO=


NOAA's National Weather Service
Alaska Aviation Weather Unit
6930 Sand Lake Road
Anchorage, AK 99502-1845
Disclaimer
Credits
Glossary
Privacy Policy
About Us
Career Opportunities
Contact AAWU Internet Services Site last modified: April, 17th 2012